AHD weather

Ardmore Downtown Executive Airport
Ardmore, Oklahoma, United States

Public forecast

Using degrees Fahrenheit for public forecast. Weather courtesy of forecast.io.

Current aviation weather report (METAR) for Ardmore Downtown Executive Airport

Retrieved UTC (0 seconds ago):

Closest aviation forecast (TAF) to Ardmore Downtown Executive Airport

Closest forecast is University of Oklahoma Westheimer Airport, 68.2 nm (126.3 km) NNW. Retrieved 2020-06-01 00:24 UTC (5 hours ago):

TAF KOUN 312322Z 0100/0124 14008KT P6SM BKN250 FM011400 16011KT P6SM SCT060 BKN250